createdAt,value
2022-10-19T00:05:18.751Z,1022.84
2022-10-19T00:15:19.090Z,1022.83
2022-10-19T00:25:19.132Z,1022.74
2022-10-19T00:35:19.431Z,1022.77
2022-10-19T00:45:19.470Z,1022.83
2022-10-19T00:55:19.774Z,1022.73
2022-10-19T01:05:19.807Z,1022.71
2022-10-19T01:15:20.137Z,1022.71
2022-10-19T01:25:20.163Z,1022.61
2022-10-19T01:35:20.481Z,1022.54
2022-10-19T01:45:20.522Z,1022.39
2022-10-19T01:55:20.838Z,1022.30
2022-10-19T02:05:20.870Z,1022.30
2022-10-19T02:15:21.169Z,1022.14
2022-10-19T02:25:21.346Z,1022.15
2022-10-19T02:35:21.424Z,1022.14
2022-10-19T02:45:21.459Z,1022.14
2022-10-19T02:55:21.766Z,1022.05
2022-10-19T03:05:21.805Z,1022.03
2022-10-19T03:15:22.158Z,1021.80
2022-10-19T03:25:22.194Z,1021.81
2022-10-19T03:35:22.469Z,1021.90
2022-10-19T03:45:22.513Z,1021.96
2022-10-19T03:55:22.820Z,1021.97
2022-10-19T04:05:22.846Z,1021.95
2022-10-19T04:15:23.177Z,1022.04
2022-10-19T04:25:23.195Z,1022.04
2022-10-19T04:35:23.526Z,1022.03
2022-10-19T04:45:23.549Z,1021.94
2022-10-19T04:55:23.867Z,1021.92
2022-10-19T05:05:23.882Z,1021.88
2022-10-19T05:15:24.218Z,1021.90
2022-10-19T05:25:24.252Z,1021.75
2022-10-19T05:35:24.568Z,1021.67
2022-10-19T05:45:24.589Z,1021.56
2022-10-19T05:55:24.915Z,1021.53
2022-10-19T06:05:24.935Z,1021.52
2022-10-19T06:15:25.264Z,1021.61
2022-10-19T06:25:25.293Z,1021.60
2022-10-19T06:35:25.620Z,1021.53
2022-10-19T06:45:25.640Z,1021.66
2022-10-19T06:55:25.963Z,1021.62
2022-10-19T07:05:25.995Z,1021.79
2022-10-19T07:15:26.314Z,1021.88
2022-10-19T07:25:26.336Z,1021.90
2022-10-19T07:35:26.664Z,1021.89
2022-10-19T07:45:26.788Z,1021.89
2022-10-19T07:55:26.913Z,1021.82
2022-10-19T08:05:27.067Z,1021.73
2022-10-19T08:15:27.180Z,1021.68
2022-10-19T08:25:27.502Z,1021.77
2022-10-19T08:35:27.624Z,1021.58
2022-10-19T08:45:27.641Z,1021.50
2022-10-19T08:55:27.965Z,1021.42
2022-10-19T09:05:27.992Z,1021.30
2022-10-19T09:15:28.329Z,1021.23
2022-10-19T09:25:28.351Z,1021.20
2022-10-19T09:35:28.665Z,1021.11
2022-10-19T09:45:28.689Z,1021.04
2022-10-19T09:55:29.019Z,1021.00
2022-10-19T10:05:29.043Z,1020.89
2022-10-19T10:15:29.357Z,1020.75
2022-10-19T10:25:29.375Z,1020.69
2022-10-19T10:35:29.718Z,1020.48
2022-10-19T10:45:29.734Z,1020.39
2022-10-19T10:55:30.068Z,1020.28
2022-10-19T11:05:30.095Z,1020.13
2022-10-19T11:25:30.582Z,1019.82
2022-10-19T11:35:30.867Z,1019.58
2022-10-19T11:45:30.900Z,1019.47
2022-10-19T11:55:31.233Z,1019.33
2022-10-19T12:05:31.260Z,1019.14
2022-10-19T12:15:31.565Z,1018.96
2022-10-19T12:25:31.594Z,1018.88
2022-10-19T12:35:31.915Z,1018.74
2022-10-19T12:45:31.948Z,1018.68
2022-10-19T12:55:32.274Z,1018.58
2022-10-19T13:05:32.307Z,1018.50
2022-10-19T13:15:32.623Z,1018.32
2022-10-19T13:25:32.661Z,1018.21
2022-10-19T13:35:32.964Z,1018.12
2022-10-19T13:45:32.986Z,1018.01
2022-10-19T13:55:33.312Z,1018.01
2022-10-19T14:05:33.362Z,1017.88
2022-10-19T14:15:33.677Z,1017.85
2022-10-19T14:25:33.686Z,1017.71
2022-10-19T14:35:33.905Z,1017.60
2022-10-19T14:45:33.940Z,1017.57
2022-10-19T14:55:34.278Z,1017.39
2022-10-19T15:05:34.306Z,1017.40
2022-10-19T15:15:34.608Z,1017.31
2022-10-19T15:25:34.708Z,1017.24
2022-10-19T15:35:34.859Z,1017.31
2022-10-19T15:45:34.888Z,1017.37
2022-10-19T15:55:35.210Z,1017.37
2022-10-19T16:05:35.248Z,1017.41
2022-10-19T16:15:35.731Z,1017.34
2022-10-19T16:25:35.670Z,1017.28
2022-10-19T16:35:35.833Z,1017.22
2022-10-19T16:45:35.863Z,1017.32
2022-10-19T16:55:36.380Z,1017.42
2022-10-19T17:05:36.532Z,1017.47
2022-10-19T17:15:42.838Z,1017.41
2022-10-19T17:25:39.655Z,1017.56
2022-10-19T17:35:37.153Z,1017.72
2022-10-19T17:45:37.197Z,1017.77
2022-10-19T17:55:37.471Z,1017.90
2022-10-19T18:05:37.961Z,1017.99
2022-10-19T18:15:37.654Z,1017.99
2022-10-19T18:25:53.541Z,1018.03
2022-10-19T18:35:38.559Z,1018.05
2022-10-19T18:45:38.111Z,1017.98
2022-10-19T18:55:38.259Z,1017.90
2022-10-19T19:05:38.886Z,1017.90
2022-10-19T19:15:38.861Z,1017.88
2022-10-19T19:25:38.934Z,1017.82
2022-10-19T19:35:40.579Z,1017.87
2022-10-19T19:45:39.105Z,1017.96
2022-10-19T19:55:39.471Z,1018.03
2022-10-19T20:05:39.706Z,1017.99
2022-10-19T20:15:39.836Z,1017.91
2022-10-19T20:25:40.019Z,1017.87
2022-10-19T20:35:40.063Z,1017.85
2022-10-19T20:45:40.238Z,1017.70
2022-10-19T20:55:40.304Z,1017.65
2022-10-19T21:05:41.014Z,1017.59
2022-10-19T21:15:40.796Z,1017.67
2022-10-19T21:25:40.872Z,1017.53
2022-10-19T21:35:41.016Z,1017.54
2022-10-19T21:45:41.122Z,1017.54
2022-10-19T21:55:41.146Z,1017.55
2022-10-19T22:05:41.380Z,1017.51
2022-10-19T22:15:41.599Z,1017.27
2022-10-19T22:25:41.936Z,1017.29
2022-10-19T22:35:41.967Z,1017.34
2022-10-19T22:45:42.287Z,1017.21
2022-10-19T22:55:42.389Z,1017.16
2022-10-19T23:05:42.538Z,1017.10
2022-10-19T23:15:43.981Z,1017.00
2022-10-19T23:25:42.852Z,1017.02
2022-10-19T23:35:42.880Z,1016.95
2022-10-19T23:45:43.131Z,1016.80
2022-10-19T23:55:43.352Z,1016.75
